Wayland, Ohio
Current Conditions -  °F | °C
As of 8:40 PM on Friday 21 Nov 2014 (Local Time) from KPOV Reporting Station
Clear Clear  
Wind Chill: -9°   Ceiling: Unl
Heat Index: -9°   Visibility: 10mi
Dew Point: -15°   Wind: 0mph
Humidity: 66%   Direction: NA
Pressure: 30.42"   Gusts: NA
Location:  41.16°N, 81.07°W
Report Text: KPOV 220140Z AUTO 00000KT 10SM CLR M09/M15 A3042 RMK AO2 T10941147
Loading
Personal Weather Stations






























Interactive Weather Map New forecast layout! Learn more

10-Day Weather Forecast

Advertisements
Track Severe Weather on mobile